createdAt,value
2023-03-19T08:19:56.415Z,73.28
2023-03-19T08:20:57.873Z,71.27
2023-03-19T08:21:59.266Z,69.91
2023-03-19T08:23:00.852Z,69.62
2023-03-19T08:24:04.895Z,70.18
2023-03-19T08:25:07.458Z,69.22
2023-03-19T08:26:08.913Z,69.18
2023-03-19T08:27:10.254Z,67.23
2023-03-19T08:28:12.034Z,65.98
2023-03-19T08:29:13.451Z,65.57
2023-03-19T08:30:15.654Z,65.88
2023-03-19T08:31:17.373Z,65.72
2023-03-19T08:32:18.842Z,64.67
2023-03-19T08:33:20.207Z,65.24
2023-03-19T08:34:22.549Z,64.65
2023-03-19T08:35:26.986Z,65.71
2023-03-19T08:36:28.393Z,67.10
2023-03-19T08:37:30.056Z,67.03
2023-03-19T08:38:31.446Z,66.99
2023-03-19T08:39:32.956Z,67.42
2023-03-19T08:40:34.582Z,68.29
2023-03-19T08:41:36.254Z,68.13
2023-03-19T08:42:44.826Z,68.36
2023-03-19T08:43:46.798Z,67.70
2023-03-19T08:44:49.063Z,67.10
2023-03-19T08:45:50.580Z,67.33
2023-03-19T08:46:52.279Z,67.43
2023-03-19T08:47:53.799Z,68.23
2023-03-19T08:48:55.212Z,67.57
2023-03-19T08:49:56.669Z,68.51
2023-03-19T08:51:01.581Z,68.17
2023-03-19T08:52:03.580Z,68.17
2023-03-19T08:53:05.398Z,65.26
2023-03-19T08:54:06.950Z,62.87
2023-03-19T08:55:09.787Z,63.58
2023-03-19T08:56:11.115Z,65.68
2023-03-19T08:57:12.577Z,66.52
2023-03-19T08:58:13.894Z,67.11
2023-03-19T08:59:16.570Z,67.85
2023-03-19T09:00:19.382Z,68.01
2023-03-19T09:01:21.146Z,68.40
2023-03-19T09:02:22.568Z,69.47
2023-03-19T09:03:24.054Z,68.60
2023-03-19T09:04:25.654Z,67.78
2023-03-19T09:05:29.645Z,66.90
2023-03-19T09:06:31.344Z,67.44
2023-03-19T09:07:32.835Z,66.26
2023-03-19T09:08:35.494Z,67.19
2023-03-19T09:09:37.056Z,67.30
2023-03-19T09:10:38.981Z,67.23
2023-03-19T09:11:40.669Z,67.54
2023-03-19T09:12:42.309Z,66.89
2023-03-19T09:13:44.447Z,66.68
2023-03-19T09:14:45.944Z,66.19
2023-03-19T09:15:47.389Z,66.78
2023-03-19T09:16:48.879Z,67.46
2023-03-19T09:17:50.988Z,66.82
2023-03-19T09:18:52.389Z,66.81
2023-03-19T09:19:53.848Z,67.08
2023-03-19T09:20:55.324Z,66.70
2023-03-19T09:21:56.674Z,66.97
2023-03-19T09:22:58.145Z,67.47
2023-03-19T09:23:59.562Z,67.92
2023-03-19T09:25:00.984Z,68.18
2023-03-19T09:26:02.450Z,66.67
2023-03-19T09:27:03.918Z,66.63
2023-03-19T09:28:05.488Z,66.78
2023-03-19T09:29:07.093Z,66.31
2023-03-19T09:30:11.884Z,66.51
2023-03-19T09:31:13.541Z,66.95
2023-03-19T09:32:15.304Z,67.78
2023-03-19T09:33:18.304Z,67.44
2023-03-19T09:34:19.712Z,66.84
2023-03-19T09:35:21.491Z,66.91
2023-03-19T09:36:22.989Z,65.09
2023-03-19T09:37:24.377Z,65.63
2023-03-19T09:38:25.756Z,65.39
2023-03-19T09:39:27.263Z,63.60
2023-03-19T09:40:45.911Z,63.78
2023-03-19T09:42:05.853Z,62.75
2023-03-19T09:43:26.325Z,60.74
2023-03-19T09:44:32.643Z,58.68
2023-03-19T09:45:34.729Z,57.33
2023-03-19T09:46:41.713Z,58.05
2023-03-19T09:47:45.548Z,57.72
2023-03-19T09:48:50.451Z,56.92
2023-03-19T09:49:54.146Z,55.03
2023-03-19T09:50:56.448Z,54.32
2023-03-19T09:52:09.587Z,53.10
2023-03-19T09:53:37.805Z,49.64
2023-03-19T09:54:39.104Z,47.17
2023-03-19T09:55:45.061Z,46.35
2023-03-19T09:56:46.404Z,46.27
2023-03-19T09:57:48.301Z,44.38
2023-03-19T09:58:50.046Z,44.22
2023-03-19T09:59:53.137Z,44.93
2023-03-19T10:00:55.412Z,43.87
2023-03-19T10:02:15.866Z,45.20
2023-03-19T10:03:20.383Z,44.93
2023-03-19T10:04:43.772Z,43.82
2023-03-19T10:05:56.716Z,43.55
2023-03-19T10:07:29.066Z,46.13
2023-03-19T10:08:32.478Z,48.16
2023-03-19T10:09:46.073Z,46.97
2023-03-19T10:10:50.944Z,46.24
2023-03-19T10:12:17.310Z,43.32
2023-03-19T10:13:39.585Z,44.53
2023-03-19T10:15:02.154Z,46.46
2023-03-19T10:16:05.068Z,46.05
2023-03-19T10:17:12.170Z,46.59
2023-03-19T10:18:19.761Z,45.34
2023-03-19T10:19:40.051Z,43.59
2023-03-19T10:21:00.590Z,44.39
2023-03-19T10:22:07.836Z,42.13
2023-03-19T10:23:31.076Z,43.03
2023-03-19T10:24:37.334Z,42.91
2023-03-19T10:25:41.731Z,42.10
2023-03-19T10:26:45.891Z,42.11
2023-03-19T10:28:00.387Z,41.49
2023-03-19T10:29:11.208Z,42.38
2023-03-19T10:30:15.920Z,41.83
2023-03-19T10:31:30.092Z,41.63
2023-03-19T10:32:46.152Z,43.01
2023-03-19T10:34:11.344Z,43.76
2023-03-19T10:35:24.280Z,44.32
2023-03-19T10:36:30.664Z,45.47
2023-03-19T10:37:35.568Z,46.04
2023-03-19T10:38:43.807Z,47.15
2023-03-19T10:39:47.176Z,47.81
2023-03-19T10:41:05.927Z,48.66
2023-03-19T10:42:44.843Z,49.83
2023-03-19T10:43:56.899Z,50.27
2023-03-19T10:45:19.012Z,50.20
2023-03-19T10:46:21.738Z,51.18
2023-03-19T10:47:26.400Z,51.23
2023-03-19T10:48:28.400Z,51.45
2023-03-19T10:49:35.512Z,51.67
2023-03-19T10:50:53.732Z,51.51
2023-03-19T10:51:57.333Z,52.09
2023-03-19T10:53:06.711Z,51.74
2023-03-19T10:54:23.292Z,51.76
2023-03-19T10:55:26.561Z,51.13
2023-03-19T10:56:34.033Z,51.32
2023-03-19T10:57:35.410Z,51.42
2023-03-19T10:58:37.447Z,51.38
2023-03-19T10:59:39.088Z,51.04
2023-03-19T11:00:40.469Z,51.22
2023-03-19T11:01:42.965Z,50.67
2023-03-19T11:02:49.816Z,50.66
2023-03-19T11:03:56.171Z,50.66
2023-03-19T11:05:22.287Z,49.85
2023-03-19T11:06:28.055Z,48.56
2023-03-19T11:07:33.174Z,48.39
2023-03-19T11:08:37.574Z,49.12
2023-03-19T11:09:42.597Z,49.48
2023-03-19T11:10:49.353Z,50.11
2023-03-19T11:11:57.671Z,50.16
2023-03-19T11:13:05.452Z,49.19
2023-03-19T11:14:21.827Z,48.87
2023-03-19T11:15:38.090Z,48.72
2023-03-19T11:16:54.826Z,49.99
2023-03-19T11:17:59.176Z,49.87
2023-03-19T11:19:00.629Z,50.29
2023-03-19T11:20:29.141Z,48.59
2023-03-19T11:21:32.829Z,48.43
2023-03-19T11:22:37.563Z,48.31
2023-03-19T11:23:42.486Z,49.59
2023-03-19T11:25:20.444Z,49.26
2023-03-19T11:26:23.221Z,49.26
2023-03-19T11:27:34.785Z,50.12
2023-03-19T11:28:37.850Z,50.43
2023-03-19T11:29:44.536Z,50.37
2023-03-19T11:31:23.989Z,51.00
2023-03-19T11:32:57.855Z,51.21
2023-03-19T11:34:23.718Z,52.46
2023-03-19T11:35:44.706Z,52.97
2023-03-19T11:37:08.329Z,53.20
2023-03-19T11:38:24.858Z,54.25
2023-03-19T11:39:58.555Z,54.01
2023-03-19T11:41:11.806Z,54.60
2023-03-19T11:42:45.058Z,55.04
2023-03-19T11:43:59.295Z,55.10
2023-03-19T11:45:12.829Z,55.32
2023-03-19T11:46:19.385Z,56.12
2023-03-19T11:47:32.379Z,56.04
2023-03-19T11:48:42.907Z,56.42
2023-03-19T11:50:00.404Z,56.38
2023-03-19T11:51:17.104Z,56.14
2023-03-19T11:52:28.341Z,56.82
2023-03-19T11:53:37.030Z,56.56
2023-03-19T11:54:58.576Z,56.90
2023-03-19T11:56:29.960Z,57.15
2023-03-19T11:57:46.309Z,58.21
2023-03-19T11:58:57.695Z,62.34
2023-03-19T12:00:26.594Z,62.16
2023-03-19T12:01:41.950Z,64.74
2023-03-19T12:03:02.300Z,65.76
2023-03-19T12:04:34.070Z,66.20
2023-03-19T12:05:44.640Z,67.16
2023-03-19T12:07:04.354Z,67.77
2023-03-19T12:08:14.986Z,68.46
2023-03-19T12:09:27.940Z,67.83
2023-03-19T12:10:53.711Z,67.69
2023-03-19T12:11:58.019Z,67.44
2023-03-19T12:13:23.751Z,66.86
2023-03-19T12:14:39.456Z,67.08
2023-03-19T12:16:15.318Z,66.94
2023-03-19T12:18:01.718Z,66.40
2023-03-19T12:19:39.699Z,64.78
2023-03-19T12:20:48.578Z,64.51
2023-03-19T12:21:52.861Z,64.78
2023-03-19T12:23:12.118Z,64.78
2023-03-19T12:24:32.351Z,64.23
2023-03-19T12:25:33.970Z,63.77
2023-03-19T12:26:51.061Z,63.00
2023-03-19T12:27:59.237Z,62.82
2023-03-19T12:29:20.586Z,63.39
2023-03-19T12:30:44.958Z,63.14
2023-03-19T12:32:01.015Z,62.34
2023-03-19T12:33:36.810Z,62.40
2023-03-19T12:34:45.259Z,63.10
2023-03-19T12:35:50.197Z,63.49
2023-03-19T12:37:04.612Z,63.68
2023-03-19T12:38:06.005Z,63.35
2023-03-19T12:39:14.479Z,62.11
2023-03-19T12:40:29.151Z,61.20
2023-03-19T12:41:34.064Z,61.01
2023-03-19T12:42:40.071Z,60.44
2023-03-19T12:43:53.980Z,60.28
2023-03-19T12:44:59.156Z,60.43
2023-03-19T12:46:06.830Z,60.55
2023-03-19T12:47:16.859Z,60.01
2023-03-19T12:48:25.715Z,60.09
2023-03-19T12:49:38.029Z,60.68
2023-03-19T12:50:43.362Z,61.10
2023-03-19T12:51:59.834Z,62.42
2023-03-19T12:53:05.800Z,61.11
2023-03-19T12:54:18.249Z,61.06
2023-03-19T12:55:55.484Z,61.69
2023-03-19T12:57:03.902Z,61.76
2023-03-19T12:58:34.182Z,61.86
2023-03-19T13:00:01.348Z,61.57
2023-03-19T13:01:12.557Z,61.57
2023-03-19T13:02:19.054Z,60.21
2023-03-19T13:03:44.615Z,61.61
2023-03-19T13:05:23.008Z,60.80
2023-03-19T13:07:07.288Z,62.44
2023-03-19T13:08:29.447Z,62.48
2023-03-19T13:09:56.717Z,61.70
2023-03-19T13:10:59.666Z,60.64
2023-03-19T13:12:10.431Z,59.57
2023-03-19T13:13:28.381Z,60.00
2023-03-19T13:14:50.924Z,60.00
2023-03-19T13:15:58.996Z,59.61
2023-03-19T13:17:21.554Z,59.03
2023-03-19T13:18:46.349Z,60.34
2023-03-19T13:19:54.191Z,59.81
2023-03-19T13:21:21.644Z,58.60
2023-03-19T13:22:27.705Z,58.37
2023-03-19T13:23:34.016Z,58.49
2023-03-19T13:24:40.710Z,58.44
2023-03-19T13:25:48.291Z,58.68
2023-03-19T13:26:52.696Z,56.65
2023-03-19T13:27:55.306Z,57.72
2023-03-19T13:29:01.608Z,59.52
2023-03-19T13:30:03.974Z,59.11
2023-03-19T13:31:08.612Z,58.61
2023-03-19T13:32:24.319Z,58.69
2023-03-19T13:33:26.658Z,58.89
2023-03-19T13:34:31.938Z,58.93
2023-03-19T13:35:49.374Z,58.85
2023-03-19T13:36:58.032Z,58.50
2023-03-19T13:38:04.103Z,58.75
2023-03-19T13:39:15.373Z,59.01
2023-03-19T13:40:39.899Z,59.06
2023-03-19T13:41:42.579Z,59.68
2023-03-19T13:42:44.080Z,59.49
2023-03-19T13:43:55.082Z,59.89
2023-03-19T13:45:04.367Z,60.18
2023-03-19T14:15:10.046Z,65.48
2023-03-19T14:16:33.358Z,66.29
2023-03-19T14:17:42.432Z,66.00
2023-03-19T14:18:44.810Z,66.69
2023-03-19T14:19:46.399Z,65.38
2023-03-19T14:21:03.193Z,64.10
2023-03-19T14:22:17.186Z,63.89
2023-03-19T14:23:38.480Z,63.52
2023-03-19T14:24:56.693Z,64.16
2023-03-19T14:26:28.823Z,64.19
2023-03-19T14:27:36.076Z,64.03
2023-03-19T14:29:02.541Z,64.17
2023-03-19T14:30:18.946Z,64.93
2023-03-19T14:31:26.927Z,64.45
2023-03-19T14:32:40.948Z,64.52
2023-03-19T14:33:46.673Z,64.43
2023-03-19T14:34:49.820Z,63.54
2023-03-19T14:35:51.811Z,63.63
2023-03-19T14:39:33.021Z,64.01
2023-03-19T14:40:44.317Z,64.06
